Time;durP1;ratioP1;P1;durP2;ratioP2;P2;SDS_P1;SDS_P2;PMS_P1;PMS_P2;Temp;Humidity;BMP_temperature;BMP_pressure;BME280_temperature;BME280_humidity;BME280_pressure;Samples;Min_cycle;Max_cycle;Signal;HPM_P1;HPM_P2
2023/03/04 00:00:18;;;;;;;8.13;5.47;;;-0.20;99.90;0.20;96910.00;;;;5090875;28;20460;-67
2023/03/04 00:03:08;;;;;;;3.17;2.83;;;-0.20;99.90;0.10;96912.00;;;;5090458;28;20467;-72
2023/03/04 00:05:57;;;;;;;3.93;3.53;;;-0.30;99.90;0.00;96907.00;;;;5086952;28;20417;-67
2023/03/04 00:08:47;;;;;;;19.73;4.40;;;-0.30;99.90;0.20;96899.00;;;;5089132;28;20425;-69
2023/03/04 00:11:35;;;;;;;10.23;4.63;;;-0.30;99.90;0.70;96901.00;;;;5087206;28;20425;-69
2023/03/04 00:14:24;;;;;;;6.37;4.93;;;-0.10;99.90;1.00;96900.00;;;;5089072;28;20916;-69
2023/03/04 00:17:13;;;;;;;5.03;3.80;;;0.00;99.90;0.90;96916.00;;;;5083866;28;20418;-69
2023/03/04 00:20:01;;;;;;;5.60;4.20;;;0.00;99.90;0.60;96919.00;;;;5086669;28;20846;-69
2023/03/04 00:22:50;;;;;;;8.90;5.80;;;0.00;99.90;-0.10;96916.00;;;;5084028;28;20429;-70
2023/03/04 00:25:40;;;;;;;7.33;3.87;;;-0.10;99.90;-0.10;96917.00;;;;5085340;28;20441;-67
2023/03/04 00:28:31;;;;;;;6.67;4.30;;;-0.30;99.90;0.10;96911.00;;;;5089622;28;20474;-67
2023/03/04 00:31:19;;;;;;;4.00;3.10;;;-0.30;99.90;0.00;96910.00;;;;5090799;28;20444;-69
2023/03/04 00:34:08;;;;;;;6.97;5.20;;;-0.40;99.90;0.30;96921.00;;;;5084943;28;20501;-67
2023/03/04 00:37:00;;;;;;;4.00;3.60;;;-0.30;99.90;0.10;96918.00;;;;5086643;28;20418;-68
2023/03/04 00:39:49;;;;;;;5.73;3.93;;;-0.30;99.90;0.00;96902.00;;;;5082866;28;20423;-68
2023/03/04 00:42:39;;;;;;;5.73;4.73;;;-0.50;99.90;0.50;96907.00;;;;5086714;28;20475;-68
2023/03/04 00:45:27;;;;;;;11.40;5.40;;;-0.40;99.90;0.50;96905.00;;;;5090406;28;20437;-68
2023/03/04 00:48:16;;;;;;;8.13;3.93;;;-0.40;99.90;0.30;96911.00;;;;5073442;28;20415;-68
2023/03/04 00:51:05;;;;;;;7.93;4.83;;;-0.40;99.90;-0.30;96897.00;;;;5089306;28;20848;-67
2023/03/04 00:53:54;;;;;;;3.87;3.43;;;-0.50;99.90;-0.60;96904.00;;;;5087339;28;20915;-72
2023/03/04 00:56:43;;;;;;;10.03;4.53;;;-0.60;99.90;-0.40;96905.00;;;;5084315;28;20462;-68
2023/03/04 00:59:33;;;;;;;12.57;5.00;;;-0.70;99.90;-0.40;96888.00;;;;5090636;28;20422;-67
2023/03/04 01:02:21;;;;;;;12.70;5.43;;;-0.70;99.90;0.10;96895.00;;;;5078812;28;20925;-67
2023/03/04 01:05:11;;;;;;;7.43;4.03;;;-0.70;99.90;0.10;96899.00;;;;5086466;28;21003;-67
2023/03/04 01:07:59;;;;;;;6.43;4.60;;;-0.60;99.90;0.20;96881.00;;;;5074502;28;20430;-67
2023/03/04 01:10:48;;;;;;;8.90;5.20;;;-0.60;99.90;0.40;96886.00;;;;5084866;28;20414;-67
2023/03/04 01:13:37;;;;;;;5.73;4.70;;;-0.50;99.90;0.20;96879.00;;;;5086132;28;20458;-67
2023/03/04 01:16:27;;;;;;;6.17;5.57;;;-0.50;99.90;-0.20;96868.00;;;;5085821;28;20955;-68
2023/03/04 01:19:16;;;;;;;8.37;5.27;;;-0.60;99.90;0.00;96877.00;;;;5084669;28;20453;-68
2023/03/04 01:22:05;;;;;;;12.10;6.30;;;-0.60;99.90;0.20;96871.00;;;;5085159;28;20433;-68
2023/03/04 01:24:54;;;;;;;6.93;4.90;;;-0.60;99.90;0.30;96871.00;;;;5087112;28;21325;-68
2023/03/04 01:27:42;;;;;;;6.40;4.83;;;-0.60;99.90;0.00;96862.00;;;;5082366;28;20414;-68
2023/03/04 01:30:31;;;;;;;4.97;4.47;;;-0.60;99.90;-0.20;96864.00;;;;5089248;28;20425;-69
2023/03/04 01:33:21;;;;;;;4.47;4.07;;;-0.70;99.90;0.00;96867.00;;;;5088864;28;20440;-69
2023/03/04 01:36:10;;;;;;;7.57;4.33;;;-0.70;99.90;0.10;96862.00;;;;5086758;28;20464;-69
2023/03/04 01:38:59;;;;;;;8.40;5.60;;;-0.70;99.90;-0.10;96863.00;;;;5084492;28;20422;-68
2023/03/04 01:41:48;;;;;;;8.33;4.97;;;-0.70;99.90;-0.10;96867.00;;;;5082139;28;20830;-68
2023/03/04 01:44:37;;;;;;;11.87;5.03;;;-0.70;99.90;-0.10;96859.00;;;;5088105;28;20458;-68
2023/03/04 01:47:30;;;;;;;8.70;5.03;;;-0.70;99.90;-0.20;96853.00;;;;5088850;28;20433;-69
2023/03/04 01:50:26;;;;;;;7.53;5.60;;;-0.80;99.90;-0.10;96857.00;;;;5089360;28;20786;-68
2023/03/04 01:53:22;;;;;;;5.10;4.60;;;-0.80;99.90;-0.20;96856.00;;;;5087090;28;20518;-68
2023/03/04 01:56:19;;;;;;;9.47;6.27;;;-0.70;99.90;0.00;96847.00;;;;5088579;28;20818;-68
2023/03/04 01:59:14;;;;;;;5.97;3.83;;;-0.80;99.90;-0.50;96848.00;;;;5089186;28;20483;-70
2023/03/04 02:02:03;;;;;;;11.30;4.70;;;-0.90;99.90;-0.40;96847.00;;;;5085604;28;20426;-69
2023/03/04 02:04:52;;;;;;;7.70;5.53;;;-0.90;99.90;-0.50;96832.00;;;;5081020;28;20473;-69
2023/03/04 02:07:42;;;;;;;4.47;4.07;;;-1.00;99.90;-0.50;96840.00;;;;5079879;28;20428;-67
2023/03/04 02:10:31;;;;;;;9.37;6.10;;;-1.00;99.90;-0.20;96836.00;;;;5088724;28;21017;-67
2023/03/04 02:13:20;;;;;;;9.27;4.90;;;-0.90;99.90;-0.60;96830.00;;;;5089212;28;20786;-69
2023/03/04 02:16:09;;;;;;;6.67;4.73;;;-0.90;99.90;-0.70;96824.00;;;;5088567;28;21050;-68
2023/03/04 02:18:58;;;;;;;11.60;4.93;;;-1.10;99.90;-0.90;96825.00;;;;5085102;28;20428;-68
2023/03/04 02:21:47;;;;;;;9.13;5.57;;;-1.20;99.90;-0.90;96827.00;;;;5088820;28;20432;-70
2023/03/04 02:24:43;;;;;;;3.63;3.33;;;-1.30;99.90;-1.10;96815.00;;;;5089354;28;20477;-70
2023/03/04 02:27:33;;;;;;;12.10;4.10;;;-1.40;99.90;-0.90;96810.00;;;;5088049;28;20447;-67
2023/03/04 02:30:25;;;;;;;19.37;4.20;;;-1.40;99.90;-0.50;96816.00;;;;5088056;28;20421;-69
2023/03/04 02:33:17;;;;;;;8.57;4.10;;;-1.30;99.90;-0.50;96819.00;;;;5087364;28;20934;-68
2023/03/04 02:36:07;;;;;;;5.43;4.70;;;-1.20;99.90;-0.80;96820.00;;;;5088992;28;20422;-68
2023/03/04 02:39:02;;;;;;;5.90;4.93;;;-1.30;99.90;-0.70;96810.00;;;;5083335;28;20505;-68
2023/03/04 02:41:54;;;;;;;6.53;4.20;;;-1.30;99.90;-0.60;96804.00;;;;5084304;28;20891;-68
2023/03/04 02:44:48;;;;;;;8.57;4.73;;;-1.30;99.90;-0.50;96800.00;;;;5084389;28;20839;-68
2023/03/04 02:47:36;;;;;;;9.57;5.40;;;-1.30;99.90;-0.80;96794.00;;;;5085900;28;20428;-68
2023/03/04 02:50:26;;;;;;;6.20;4.90;;;-1.30;99.90;-0.80;96788.00;;;;5087888;28;20437;-68
2023/03/04 02:53:15;;;;;;;5.97;4.13;;;-1.30;99.90;-0.80;96786.00;;;;5087954;28;20496;-68
2023/03/04 02:56:04;;;;;;;5.80;4.73;;;-1.30;99.90;-0.70;96788.00;;;;5087615;28;20563;-68
2023/03/04 02:58:53;;;;;;;7.43;4.23;;;-1.30;99.90;-0.60;96783.00;;;;5084081;28;20508;-68
2023/03/04 03:01:43;;;;;;;9.13;5.07;;;-1.30;99.90;-0.90;96795.00;;;;5087833;28;20430;-68
2023/03/04 03:04:32;;;;;;;7.03;4.67;;;-1.30;99.90;-1.20;96780.00;;;;5075222;28;20515;-70
2023/03/04 03:07:21;;;;;;;5.43;4.93;;;-1.50;99.90;-0.80;96780.00;;;;5086146;28;20858;-70
2023/03/04 03:10:11;;;;;;;8.43;5.43;;;-1.40;99.90;-0.70;96776.00;;;;5088677;28;20417;-70
2023/03/04 03:13:00;;;;;;;15.60;4.17;;;-1.40;99.90;-1.00;96777.00;;;;5088265;28;20425;-68
2023/03/04 03:15:49;;;;;;;11.87;4.77;;;-1.50;99.90;-1.00;96774.00;;;;5087496;28;20437;-68
2023/03/04 03:18:40;;;;;;;14.30;5.77;;;-1.50;99.90;-0.80;96776.00;;;;5091635;28;20437;-68
2023/03/04 03:21:29;;;;;;;5.80;4.63;;;-1.50;99.90;-0.80;96777.00;;;;5093212;28;20450;-68
2023/03/04 03:24:19;;;;;;;11.70;6.27;;;-1.50;99.90;-0.60;96775.00;;;;5092153;28;20478;-68
2023/03/04 03:27:07;;;;;;;7.67;4.43;;;-1.50;99.90;-0.70;96768.00;;;;5088576;28;20929;-68
2023/03/04 03:29:56;;;;;;;8.73;5.20;;;-1.50;99.90;-0.90;96776.00;;;;5090383;28;21253;-69
2023/03/04 03:32:45;;;;;;;15.27;4.37;;;-1.50;99.90;-1.00;96763.00;;;;5086855;28;20417;-67
2023/03/04 03:35:35;;;;;;;8.53;3.93;;;-1.50;99.90;-1.20;96768.00;;;;5091828;28;20505;-68
2023/03/04 03:38:23;;;;;;;4.00;3.60;;;-1.50;99.90;-1.00;96768.00;;;;5087657;28;20936;-70
2023/03/04 03:41:12;;;;;;;6.90;4.67;;;-1.50;99.90;-0.60;96767.00;;;;5088129;28;20429;-69
2023/03/04 03:44:01;;;;;;;6.93;4.63;;;-1.50;99.90;-0.90;96761.00;;;;5085162;28;20768;-70
2023/03/04 03:46:50;;;;;;;4.27;3.77;;;-1.50;99.90;-1.20;96754.00;;;;5092380;28;20456;-70
2023/03/04 03:49:39;;;;;;;5.43;4.43;;;-1.50;99.90;-1.30;96756.00;;;;5089992;28;20429;-67
2023/03/04 03:52:29;;;;;;;4.67;4.27;;;-1.60;99.90;-1.50;96761.00;;;;5090814;28;20461;-71
2023/03/04 03:55:17;;;;;;;1.60;1.50;;;-0.90;99.90;-1.60;96759.00;;;;5091421;28;20506;-72
2023/03/04 03:58:06;;;;;;;6.10;4.67;;;-1.70;99.90;-1.40;96754.00;;;;5090969;28;20425;-71
2023/03/04 04:00:55;;;;;;;11.23;4.13;;;-1.70;99.90;-1.10;96765.00;;;;5092223;28;20429;-68
2023/03/04 04:03:45;;;;;;;6.30;4.53;;;-1.70;99.90;-0.90;96764.00;;;;5088818;28;20944;-68
2023/03/04 04:06:34;;;;;;;5.77;4.20;;;-1.60;99.90;-1.30;96750.00;;;;5090924;28;20484;-67
2023/03/04 04:09:24;;;;;;;8.23;5.33;;;-1.60;99.90;-1.00;96750.00;;;;5091793;28;20461;-69
2023/03/04 04:12:15;;;;;;;11.77;6.33;;;-1.70;99.90;-0.90;96742.00;;;;5089529;28;20474;-68
2023/03/04 04:15:05;;;;;;;6.60;5.23;;;-1.60;99.90;-0.60;96749.00;;;;5090688;28;20528;-68
2023/03/04 04:17:54;;;;;;;11.83;5.27;;;-1.50;99.90;-0.50;96746.00;;;;5086025;28;20437;-68
2023/03/04 04:20:43;;;;;;;11.33;6.73;;;-1.50;99.90;-0.70;96745.00;;;;5090595;28;20421;-69
2023/03/04 04:23:32;;;;;;;5.57;4.90;;;-1.40;99.90;-1.00;96743.00;;;;5081992;28;20493;-68
2023/03/04 04:26:22;;;;;;;12.57;5.13;;;-1.50;99.90;-1.10;96740.00;;;;5084932;28;20479;-68
2023/03/04 04:29:14;;;;;;;9.90;5.57;;;-1.50;99.90;-1.10;96735.00;;;;5087731;28;20422;-68
2023/03/04 04:32:03;;;;;;;6.57;4.70;;;-1.60;99.90;-1.10;96728.00;;;;5086687;28;20835;-68
2023/03/04 04:34:51;;;;;;;10.50;5.93;;;-1.60;99.90;-1.10;96739.00;;;;5088715;28;20453;-68
2023/03/04 04:37:40;;;;;;;7.33;3.73;;;0.50;99.90;-1.40;96736.00;;;;5091132;28;20460;-70
2023/03/04 04:40:29;;;;;;;15.90;5.50;;;-1.70;99.90;-1.20;96729.00;;;;5091171;28;20795;-67
2023/03/04 04:43:19;;;;;;;6.40;5.10;;;-1.70;99.90;-0.90;96733.00;;;;5087237;28;20797;-68
2023/03/04 04:46:09;;;;;;;6.90;5.20;;;-1.60;99.90;-0.70;96730.00;;;;5091542;28;20461;-68
2023/03/04 04:48:57;;;;;;;8.63;5.90;;;-1.50;99.90;-0.60;96747.00;;;;5091466;28;20421;-68
2023/03/04 04:51:46;;;;;;;5.27;4.77;;;-1.50;99.90;-0.80;96742.00;;;;5085994;28;21086;-68
2023/03/04 04:54:35;;;;;;;8.67;5.47;;;-1.50;99.90;-1.30;96733.00;;;;5084983;28;20461;-69
2023/03/04 04:57:24;;;;;;;11.43;5.37;;;-1.60;99.90;-1.20;96732.00;;;;5090045;28;20418;-68
2023/03/04 05:00:17;;;;;;;8.17;5.07;;;-1.60;99.90;-0.90;96729.00;;;;5090047;28;20413;-68
2023/03/04 05:03:06;;;;;;;6.03;5.40;;;-1.70;99.90;-1.10;96725.00;;;;5089869;28;20530;-68
2023/03/04 05:05:55;;;;;;;8.77;5.40;;;-1.70;99.90;-1.20;96727.00;;;;5078271;28;20453;-68
2023/03/04 05:08:43;;;;;;;3.97;3.33;;;-1.80;99.90;-1.10;96728.00;;;;5088224;28;20502;-69
2023/03/04 05:11:33;;;;;;;9.10;5.97;;;-1.70;99.90;-0.80;96725.00;;;;5086793;28;20425;-69
2023/03/04 05:14:21;;;;;;;9.03;6.37;;;-1.60;99.90;-1.00;96718.00;;;;5089365;28;20445;-68
2023/03/04 05:17:11;;;;;;;4.53;3.67;;;-1.60;99.90;-1.90;96720.00;;;;5087673;28;20426;-68
2023/03/04 05:20:00;;;;;;;6.53;4.90;;;-1.80;99.90;-1.80;96714.00;;;;5087745;28;20491;-68
2023/03/04 05:22:49;;;;;;;9.03;4.80;;;-1.90;99.90;-1.80;96712.00;;;;5078830;28;20429;-69
2023/03/04 05:25:38;;;;;;;6.73;4.40;;;-2.00;99.90;-1.60;96725.00;;;;5084105;28;20473;-67
2023/03/04 05:28:27;;;;;;;7.17;4.37;;;-2.00;99.90;-1.50;96716.00;;;;5089523;28;20514;-68
2023/03/04 05:31:16;;;;;;;6.27;4.13;;;-1.90;99.90;-1.50;96714.00;;;;5089351;28;20433;-70
2023/03/04 05:34:06;;;;;;;10.03;5.73;;;-1.90;99.90;-1.10;96723.00;;;;5090060;28;20457;-68
2023/03/04 05:36:55;;;;;;;6.73;4.77;;;-1.80;99.90;-1.20;96715.00;;;;5084219;28;20831;-69
2023/03/04 05:39:44;;;;;;;9.57;5.27;;;-2.50;99.90;-1.40;96712.00;;;;5087787;28;20423;-69
2023/03/04 05:42:32;;;;;;;7.13;5.00;;;-1.90;99.90;-1.30;96716.00;;;;5090451;28;20410;-68
2023/03/04 05:45:21;;;;;;;8.90;6.10;;;-1.90;99.90;-1.30;96712.00;;;;5089050;28;20453;-68
2023/03/04 05:48:10;;;;;;;7.00;4.90;;;-1.80;99.90;-1.70;96702.00;;;;5086138;28;20430;-70
2023/03/04 05:51:02;;;;;;;10.73;5.07;;;-1.90;99.90;-1.30;96706.00;;;;5088862;28;20434;-67
2023/03/04 05:53:51;;;;;;;10.83;8.40;;;-1.60;99.90;-1.30;96723.00;;;;5091576;28;20436;-68
2023/03/04 05:56:39;;;;;;;13.23;7.70;;;-1.90;99.90;-1.30;96713.00;;;;5091328;28;20434;-68
2023/03/04 05:59:28;;;;;;;5.60;3.37;;;-1.70;99.90;-1.70;96708.00;;;;5076061;28;20474;-70
2023/03/04 06:02:17;;;;;;;14.37;8.43;;;-1.90;99.90;-1.50;96714.00;;;;5084237;28;20435;-69
2023/03/04 06:05:08;;;;;;;13.00;8.67;;;-2.00;99.90;-1.30;96715.00;;;;5088052;28;21055;-69
2023/03/04 06:07:58;;;;;;;8.03;6.87;;;-2.00;99.90;-1.30;96716.00;;;;5083817;28;20422;-69
2023/03/04 06:10:46;;;;;;;8.93;6.70;;;-1.90;99.90;-1.30;96721.00;;;;5084503;28;20426;-68
2023/03/04 06:13:37;;;;;;;5.40;4.87;;;-1.90;99.90;-1.30;96717.00;;;;5089074;28;20482;-67
2023/03/04 06:16:25;;;;;;;7.50;5.00;;;-1.90;99.90;-1.40;96719.00;;;;5075651;28;20444;-69
2023/03/04 06:19:14;;;;;;;7.57;4.73;;;-1.70;99.90;-1.20;96724.00;;;;5082222;28;20445;-67
2023/03/04 06:22:03;;;;;;;6.97;5.07;;;-1.90;99.90;-1.60;96721.00;;;;5083138;28;20411;-68
2023/03/04 06:24:53;;;;;;;20.33;5.60;;;-1.90;99.90;-1.40;96730.00;;;;5084375;28;20439;-67
2023/03/04 06:27:43;;;;;;;14.43;4.97;;;-1.80;99.90;-1.40;96717.00;;;;5082132;28;20496;-69
2023/03/04 06:30:31;;;;;;;10.87;5.67;;;-1.90;99.90;-1.10;96722.00;;;;5085055;28;20514;-67
2023/03/04 06:33:20;;;;;;;6.30;4.00;;;-1.70;99.90;-0.90;96727.00;;;;5081296;28;20422;-70
2023/03/04 06:36:09;;;;;;;6.67;5.93;;;-1.60;99.90;-0.60;96741.00;;;;5088095;28;20884;-68
2023/03/04 06:38:58;;;;;;;2.47;2.27;;;-1.40;99.90;-1.40;96722.00;;;;5093220;28;20460;-73
2023/03/04 06:41:48;;;;;;;6.73;5.57;;;-1.40;99.90;-1.10;96722.00;;;;5083803;28;20430;-70
2023/03/04 06:44:37;;;;;;;5.63;4.17;;;-1.50;99.90;-1.30;96731.00;;;;5084760;28;20460;-66
2023/03/04 06:47:25;;;;;;;2.10;2.00;;;-1.50;99.90;-1.20;96727.00;;;;5080552;28;20501;-73
2023/03/04 06:50:14;;;;;;;6.67;4.17;;;-1.40;99.90;-1.10;96727.00;;;;5073630;28;20812;-68
2023/03/04 06:53:03;;;;;;;7.87;4.67;;;-1.00;99.90;-0.90;96726.00;;;;5076359;28;20441;-65
2023/03/04 06:55:52;;;;;;;8.87;5.03;;;-1.30;99.90;-0.90;96725.00;;;;5082155;28;21004;-70
2023/03/04 06:58:42;;;;;;;8.97;4.87;;;-1.20;99.90;-0.70;96725.00;;;;5069435;28;20800;-67
2023/03/04 07:01:31;;;;;;;9.40;4.97;;;-1.10;99.90;-0.70;96721.00;;;;5079428;28;20445;-68
2023/03/04 07:04:21;;;;;;;9.67;5.43;;;-1.10;99.90;-0.60;96726.00;;;;5084342;28;20548;-67
2023/03/04 07:07:11;;;;;;;7.97;5.27;;;-1.10;99.90;-0.30;96735.00;;;;5074356;28;20457;-67
2023/03/04 07:10:00;;;;;;;5.73;4.53;;;-0.90;99.90;0.20;96739.00;;;;5087041;28;20450;-67
2023/03/04 07:12:49;;;;;;;7.63;6.00;;;-0.70;99.90;0.30;96734.00;;;;5078276;28;20468;-67
2023/03/04 07:15:39;;;;;;;12.17;6.07;;;-0.50;99.90;0.40;96730.00;;;;5078521;28;20635;-67
2023/03/04 07:18:28;;;;;;;6.80;5.23;;;-0.40;99.90;0.40;96726.00;;;;5077782;28;20490;-69
2023/03/04 07:21:17;;;;;;;8.00;5.43;;;-0.30;99.90;0.60;96730.00;;;;5078786;28;20433;-68
2023/03/04 07:24:06;;;;;;;4.83;4.43;;;-0.20;99.90;0.80;96731.00;;;;5081343;28;20509;-71
2023/03/04 07:26:55;;;;;;;9.23;5.70;;;-0.10;99.90;1.00;96733.00;;;;5073296;28;20463;-68
2023/03/04 07:29:44;;;;;;;7.93;4.83;;;0.10;99.90;1.10;96726.00;;;;5091487;28;20869;-67
2023/03/04 07:32:34;;;;;;;4.93;4.17;;;0.20;99.90;1.20;96724.00;;;;5086871;28;20440;-70
2023/03/04 07:35:23;;;;;;;10.63;5.30;;;0.40;99.90;1.30;96721.00;;;;5088215;28;21014;-69
2023/03/04 07:38:12;;;;;;;10.93;6.27;;;0.50;99.90;1.30;96728.00;;;;5080585;28;20995;-68
2023/03/04 07:41:01;;;;;;;12.37;5.83;;;0.60;99.90;1.20;96718.00;;;;5087976;28;20852;-69
2023/03/04 07:43:50;;;;;;;11.73;7.13;;;0.70;99.90;1.40;96721.00;;;;5077078;28;20499;-67
2023/03/04 07:46:39;;;;;;;6.83;5.33;;;0.70;99.90;1.50;96713.00;;;;5084188;28;20457;-66
2023/03/04 07:49:29;;;;;;;12.33;5.20;;;0.90;99.90;1.90;96704.00;;;;5078396;28;20456;-70
2023/03/04 07:52:17;;;;;;;5.20;4.70;;;1.00;99.90;2.20;96714.00;;;;5079780;28;20476;-70
2023/03/04 07:55:08;;;;;;;7.07;6.33;;;1.20;99.90;2.40;96718.00;;;;5089086;28;21002;-68
2023/03/04 07:57:56;;;;;;;6.70;4.83;;;2.00;99.90;2.50;96721.00;;;;5068318;28;20422;-75
2023/03/04 08:00:45;;;;;;;6.63;5.77;;;1.60;99.90;2.70;96718.00;;;;5081088;28;20494;-68
2023/03/04 08:03:34;;;;;;;6.77;3.60;;;1.80;99.90;3.00;96705.00;;;;5085567;28;20449;-67
2023/03/04 08:06:25;;;;;;;8.27;5.10;;;1.90;99.90;3.30;96714.00;;;;5083073;28;20445;-68
2023/03/04 08:09:14;;;;;;;8.70;4.50;;;2.20;99.90;3.40;96709.00;;;;5093226;28;20582;-73
2023/03/04 08:12:03;;;;;;;8.17;5.43;;;2.60;99.90;4.00;96712.00;;;;5087579;28;20440;-68
2023/03/04 08:14:52;;;;;;;11.60;5.47;;;2.60;99.90;4.40;96716.00;;;;5092315;28;20444;-68
2023/03/04 08:17:41;;;;;;;10.23;5.00;;;2.90;99.90;4.20;96710.00;;;;5097271;28;20497;-68
2023/03/04 08:20:29;;;;;;;6.67;3.97;;;3.10;99.90;4.60;96711.00;;;;5086495;28;20453;-68
2023/03/04 08:23:19;;;;;;;6.93;5.23;;;3.30;99.90;4.90;96708.00;;;;5084552;28;20476;-70
2023/03/04 08:26:11;;;;;;;7.43;5.53;;;3.50;99.90;5.10;96715.00;;;;5079949;28;20423;-67
2023/03/04 08:29:03;;;;;;;14.20;6.23;;;3.70;99.90;5.10;96698.00;;;;5079133;28;20203;-69
2023/03/04 08:31:54;;;;;;;9.83;5.07;;;3.90;99.90;5.40;96708.00;;;;5082334;28;20228;-69
2023/03/04 08:34:43;;;;;;;8.53;5.30;;;4.10;99.90;5.80;96690.00;;;;5085358;28;20453;-70
2023/03/04 08:37:32;;;;;;;9.80;6.20;;;4.40;99.90;6.20;96689.00;;;;5078305;28;20215;-69
2023/03/04 08:40:24;;;;;;;15.33;7.60;;;4.60;99.90;6.70;96695.00;;;;5078871;28;20199;-68
2023/03/04 08:43:12;;;;;;;7.97;5.70;;;4.90;99.90;6.60;96685.00;;;;5079763;28;20215;-69
2023/03/04 08:46:01;;;;;;;12.33;7.63;;;5.20;99.90;7.30;96686.00;;;;5080409;28;20236;-69
2023/03/04 08:48:50;;;;;;;18.27;8.37;;;5.50;99.90;7.00;96679.00;;;;5081043;28;20226;-69
2023/03/04 08:51:39;;;;;;;14.73;7.20;;;5.70;99.90;7.10;96686.00;;;;5084522;28;20764;-68
2023/03/04 08:54:28;;;;;;;11.00;5.93;;;5.90;99.90;7.20;96675.00;;;;5080160;28;20223;-68
2023/03/04 08:57:18;;;;;;;21.27;6.87;;;6.00;99.90;7.70;96683.00;;;;5079886;28;20348;-68
2023/03/04 09:00:08;;;;;;;7.40;6.10;;;6.20;99.90;8.10;96672.00;;;;5085361;28;20210;-68
2023/03/04 09:02:57;;;;;;;7.80;6.07;;;6.40;99.90;8.50;96677.00;;;;5089412;28;20207;-68
2023/03/04 09:05:47;;;;;;;19.23;8.17;;;6.60;99.90;8.40;96670.00;;;;5092378;28;20260;-68
2023/03/04 09:08:37;;;;;;;10.03;6.07;;;6.90;99.90;8.50;96663.00;;;;5090463;28;20232;-68
2023/03/04 09:11:25;;;;;;;12.87;6.13;;;7.10;99.90;8.70;96666.00;;;;5085600;28;20196;-69
2023/03/04 09:14:15;;;;;;;9.40;6.10;;;7.20;99.90;9.10;96672.00;;;;5081020;28;20226;-67
2023/03/04 09:17:05;;;;;;;14.83;5.53;;;7.50;99.90;10.00;96668.00;;;;5085781;28;20249;-69
2023/03/04 09:19:53;;;;;;;8.30;5.13;;;7.80;99.90;10.70;96667.00;;;;5090796;28;20275;-68
2023/03/04 09:22:43;;;;;;;9.70;5.13;;;8.20;99.90;10.90;96664.00;;;;5086534;28;20249;-67
2023/03/04 09:25:33;;;;;;;11.63;5.13;;;8.70;99.90;11.20;96668.00;;;;5081590;28;20722;-68
2023/03/04 09:28:22;;;;;;;7.73;5.93;;;9.10;99.90;11.30;96656.00;;;;5079152;28;20223;-69
2023/03/04 09:31:15;;;;;;;13.87;5.63;;;9.40;99.90;12.00;96669.00;;;;5085912;28;20204;-69
2023/03/04 09:34:04;;;;;;;11.73;4.97;;;9.80;99.90;11.90;96657.00;;;;5080722;28;20622;-69
2023/03/04 09:36:53;;;;;;;12.83;5.40;;;10.10;99.90;12.40;96655.00;;;;5082382;28;20259;-68
2023/03/04 09:39:41;;;;;;;12.10;6.60;;;10.40;98.70;12.80;96660.00;;;;5082029;28;20617;-68
2023/03/04 09:42:38;;;;;;;12.57;6.13;;;10.70;97.10;13.10;96657.00;;;;5085601;28;20238;-68
2023/03/04 09:45:35;;;;;;;12.60;5.50;;;10.90;96.90;13.30;96657.00;;;;5082102;28;20210;-68
2023/03/04 09:48:30;;;;;;;6.53;3.60;;;11.20;95.40;13.40;96653.00;;;;5077932;28;20760;-67
2023/03/04 09:51:23;;;;;;;10.03;4.17;;;11.30;94.10;13.50;96656.00;;;;5081392;28;20666;-68
2023/03/04 09:54:20;;;;;;;6.83;4.33;;;11.50;93.20;13.70;96654.00;;;;5081025;28;20227;-70
2023/03/04 09:57:26;;;;;;;7.13;5.03;;;11.70;92.20;13.80;96648.00;;;;5077345;28;20555;-68
2023/03/04 10:00:20;;;;;;;6.73;3.37;;;11.90;91.40;14.00;96644.00;;;;5084480;28;20199;-67
2023/03/04 10:03:20;;;;;;;12.00;3.97;;;12.10;90.90;14.40;96640.00;;;;5079283;28;20203;-67
2023/03/04 10:06:16;;;;;;;10.60;4.47;;;12.30;88.40;14.70;96634.00;;;;5074878;28;20203;-67
2023/03/04 10:09:11;;;;;;;8.37;3.10;;;12.50;88.70;14.60;96637.00;;;;5079541;28;20219;-68
2023/03/04 10:12:05;;;;;;;8.53;3.23;;;12.70;84.40;15.10;96633.00;;;;5085221;28;20202;-69
2023/03/04 10:15:00;;;;;;;8.77;3.17;;;12.90;84.70;15.50;96631.00;;;;5082157;28;20215;-68
2023/03/04 10:17:53;;;;;;;8.93;2.93;;;11.70;81.20;15.10;96621.00;;;;5082386;28;20861;-69
2023/03/04 10:20:53;;;;;;;11.47;3.40;;;13.20;79.00;15.30;96621.00;;;;5081333;28;20292;-70
2023/03/04 10:23:43;;;;;;;10.53;4.53;;;13.40;76.70;15.60;96616.00;;;;5081389;28;20828;-68
2023/03/04 10:26:33;;;;;;;6.47;2.40;;;13.60;76.60;14.30;96581.00;;;;5083115;28;20626;-68
2023/03/04 10:29:24;;;;;;;13.43;3.90;;;13.60;71.40;15.70;96608.00;;;;5080932;28;20309;-68
2023/03/04 10:32:15;;;;;;;5.43;2.73;;;13.70;72.80;15.90;96600.00;;;;5082117;28;20199;-66
2023/03/04 10:35:12;;;;;;;11.90;2.63;;;14.00;70.10;16.00;96586.00;;;;5081885;28;20622;-69
2023/03/04 10:38:04;;;;;;;11.70;2.93;;;14.10;69.90;14.10;96581.00;;;;5077974;28;20381;-64
2023/03/04 10:40:54;;;;;;;7.87;3.13;;;14.00;69.30;13.80;96571.00;;;;5073596;28;20289;-65
2023/03/04 10:43:45;;;;;;;9.63;3.93;;;13.60;70.00;14.60;96582.00;;;;5070780;28;20219;-66
2023/03/04 10:46:37;;;;;;;9.63;3.00;;;13.50;72.60;15.00;96584.00;;;;5084961;28;20706;-68
2023/03/04 10:49:28;;;;;;;8.23;2.60;;;13.50;69.40;15.10;96571.00;;;;5085072;28;20252;-68
2023/03/04 10:52:28;;;;;;;3.40;2.40;;;13.70;66.80;15.80;96570.00;;;;5081089;28;20210;-71
2023/03/04 10:55:19;;;;;;;8.60;2.67;;;14.00;64.90;15.50;96570.00;;;;5086742;28;20227;-69
2023/03/04 10:58:17;;;;;;;5.43;3.10;;;14.10;63.70;16.20;96565.00;;;;5085407;28;20214;-67
2023/03/04 11:01:06;;;;;;;4.60;1.90;;;14.60;62.60;17.30;96558.00;;;;5085880;28;20198;-68
2023/03/04 11:03:56;;;;;;;7.00;2.23;;;15.00;60.90;17.40;96570.00;;;;5085166;28;20626;-68
2023/03/04 11:06:45;;;;;;;5.07;2.47;;;;;16.50;96560.00;;;;5075258;28;20590;-67
2023/03/04 11:09:34;;;;;;;8.17;2.60;;;;;17.70;96553.00;;;;5085600;28;20690;-67
2023/03/04 11:12:33;;;;;;;10.67;2.00;;;;;17.20;96551.00;;;;5088381;28;20241;-66
2023/03/04 11:15:26;;;;;;;4.17;1.93;;;;;16.80;96535.00;;;;5084383;28;20261;-72
2023/03/04 11:18:15;;;;;;;10.13;3.27;;;;;16.90;96543.00;;;;5078193;28;20219;-68
2023/03/04 11:21:05;;;;;;;3.83;1.67;;;;;18.50;96545.00;;;;5086430;28;20206;-68
2023/03/04 11:23:57;;;;;;;11.13;3.40;;;;;18.90;96540.00;;;;5082238;28;20214;-67
2023/03/04 11:26:48;;;;;;;4.73;2.17;;;;;20.10;96544.00;;;;5089217;28;20203;-68
2023/03/04 11:29:40;;;;;;;11.73;2.43;;;;;20.10;96528.00;;;;5089662;28;20206;-68
2023/03/04 11:32:34;;;;;;;3.97;2.80;;;;;18.50;96531.00;;;;5095380;28;20222;-65
2023/03/04 11:35:25;;;;;;;9.03;2.47;;;;;20.30;96536.00;;;;5094950;28;20238;-67
2023/03/04 11:38:18;;;;;;;13.47;3.23;;;;;20.10;96520.00;;;;5091220;28;20207;-71
2023/03/04 11:41:13;;;;;;;8.27;1.93;;;;;21.20;96531.00;;;;5088311;28;20287;-66
2023/03/04 11:44:03;;;;;;;6.70;2.40;;;;;20.10;96519.00;;;;5080380;28;20577;-68
2023/03/04 11:47:06;;;;;;;7.67;3.70;;;;;21.40;96521.00;;;;5087081;28;20217;-68
2023/03/04 11:50:22;;;;;;;12.50;3.80;;;;;22.10;96523.00;;;;5086346;28;20234;-68
2023/03/04 11:53:32;;;;;;;6.60;2.33;;;;;21.60;96508.00;;;;5079920;28;20207;-66
2023/03/04 11:56:28;;;;;;;7.30;2.87;;;;;20.50;96508.00;;;;5082869;28;20203;-67
2023/03/04 11:59:36;;;;;;;6.27;2.40;;;;;21.90;96515.00;;;;5078882;28;20216;-67
2023/03/04 12:02:32;;;;;;;7.23;2.20;;;;;20.70;96508.00;;;;5080172;28;20203;-67
2023/03/04 12:05:29;;;;;;;5.47;2.00;;;;;22.10;96507.00;;;;5079330;28;20219;-72
2023/03/04 12:08:42;;;;;;;13.17;3.93;;;;;22.60;96505.00;;;;5080852;28;20230;-68
2023/03/04 12:11:39;;;;;;;10.03;2.60;;;;;21.90;96491.00;;;;5085973;28;20200;-67
2023/03/04 12:14:31;;;;;;;4.27;2.20;;;;;23.20;96496.00;;;;5081092;28;20767;-67
2023/03/04 12:17:30;;;;;;;;;;;;;22.00;96480.00;;;;5082156;28;20504;-67
2023/03/04 12:20:32;;;;;;;;;;;;;23.70;96488.00;;;;5085308;28;19920;-67
2023/03/04 12:23:27;;;;;;;;;;;;;23.40;96487.00;;;;5079676;28;19974;-69
2023/03/04 12:26:20;;;;;;;;;;;;;23.10;96470.00;;;;5081022;28;19974;-68
2023/03/04 12:29:11;;;;;;;;;;;;;21.60;96459.00;;;;5081368;28;19950;-67
2023/03/04 12:32:01;;;;;;;;;;;;;22.90;96465.00;;;;5094790;28;19920;-68
2023/03/04 12:35:00;;;;;;;;;;;;;24.10;96468.00;;;;5085241;28;19920;-67
2023/03/04 12:37:57;;;;;;;;;;;;;22.90;96461.00;;;;5085182;28;19923;-69
2023/03/04 12:40:48;;;;;;;;;;;;;23.70;96456.00;;;;5087102;28;19919;-69
2023/03/04 12:43:40;;;;;;;;;;;;;23.70;96459.00;;;;5083601;28;19928;-69
2023/03/04 12:46:35;;;;;;;;;;;;;23.00;96442.00;;;;5086322;28;20372;-70
2023/03/04 12:49:27;;;;;;;;;;;;;23.80;96445.00;;;;5086528;28;19935;-70
2023/03/04 12:52:16;;;;;;;;;;;;;23.80;96443.00;;;;5084257;28;19948;-69
2023/03/04 12:55:10;;;;;;;;;;;;;24.00;96446.00;;;;5082890;28;19920;-69